createdAt,value
2017-11-09T00:02:12.206Z,18.48
2017-11-09T00:04:45.604Z,20.15
2017-11-09T00:07:13.471Z,19.00
2017-11-09T00:09:41.338Z,16.50
2017-11-09T00:12:09.206Z,17.35
2017-11-09T00:14:37.074Z,16.77
2017-11-09T00:17:04.940Z,17.98
2017-11-09T00:19:32.808Z,18.55
2017-11-09T00:22:00.675Z,16.92
2017-11-09T00:24:28.542Z,17.90
2017-11-09T00:26:56.411Z,18.48
2017-11-09T00:29:24.277Z,20.00
2017-11-09T00:31:52.144Z,17.92
2017-11-09T00:34:20.015Z,17.90
2017-11-09T00:36:47.880Z,19.17
2017-11-09T00:39:15.746Z,18.92
2017-11-09T00:41:43.614Z,19.42
2017-11-09T00:44:11.480Z,16.25
2017-11-09T00:46:39.348Z,18.95
2017-11-09T00:49:07.216Z,19.67
2017-11-09T00:51:35.087Z,18.40
2017-11-09T00:54:02.950Z,17.17
2017-11-09T00:56:30.829Z,17.15
2017-11-09T00:58:58.686Z,16.40
2017-11-09T01:01:26.553Z,17.30
2017-11-09T01:03:54.424Z,18.15
2017-11-09T01:06:22.295Z,16.75
2017-11-09T01:08:50.160Z,17.08
2017-11-09T01:11:18.025Z,15.25
2017-11-09T01:13:45.891Z,15.73
2017-11-09T01:16:13.757Z,15.90
2017-11-09T01:18:41.623Z,16.70
2017-11-09T01:21:09.491Z,15.57
2017-11-09T01:23:37.358Z,14.35
2017-11-09T01:26:05.227Z,13.57
2017-11-09T01:28:33.091Z,13.65
2017-11-09T01:31:00.960Z,12.55
2017-11-09T01:33:28.849Z,14.10
2017-11-09T01:35:56.708Z,14.20
2017-11-09T01:38:24.564Z,14.30
2017-11-09T01:40:52.429Z,13.25
2017-11-09T01:43:20.298Z,13.18
2017-11-09T01:45:48.164Z,11.95
2017-11-09T01:48:16.031Z,13.00
2017-11-09T01:50:43.898Z,11.50
2017-11-09T01:53:11.767Z,12.90
2017-11-09T01:55:39.636Z,11.25
2017-11-09T01:58:07.502Z,11.80
2017-11-09T02:00:35.368Z,11.85
2017-11-09T02:03:03.239Z,10.25
2017-11-09T02:05:31.102Z,11.70
2017-11-09T02:07:58.972Z,12.55
2017-11-09T02:10:26.767Z,12.55
2017-11-09T02:12:55.422Z,11.60
2017-11-09T02:15:23.288Z,11.73
2017-11-09T02:17:51.164Z,10.50
2017-11-09T02:20:19.024Z,10.90
2017-11-09T02:22:46.894Z,11.98
2017-11-09T02:25:14.758Z,11.27
2017-11-09T02:27:42.627Z,11.23
2017-11-09T02:30:10.493Z,11.48
2017-11-09T02:32:38.360Z,9.65
2017-11-09T02:35:06.227Z,9.73
2017-11-09T02:37:34.095Z,12.48
2017-11-09T02:40:01.961Z,10.00
2017-11-09T02:42:29.830Z,10.45
2017-11-09T02:44:57.697Z,9.93
2017-11-09T02:47:25.564Z,10.88
2017-11-09T02:49:53.430Z,10.20
2017-11-09T02:52:21.298Z,10.55
2017-11-09T02:54:49.165Z,10.60
2017-11-09T02:57:17.135Z,11.27
2017-11-09T02:59:45.009Z,12.07
2017-11-09T03:02:12.870Z,12.07
2017-11-09T03:04:40.737Z,11.12
2017-11-09T03:09:42.720Z,11.50
2017-11-09T03:12:11.405Z,11.55
2017-11-09T03:14:39.375Z,11.60
2017-11-09T03:17:07.242Z,12.65
2017-11-09T03:19:35.110Z,12.43
2017-11-09T03:22:02.977Z,12.65
2017-11-09T03:24:30.844Z,13.15
2017-11-09T03:26:58.710Z,14.23
2017-11-09T03:29:26.578Z,13.38
2017-11-09T03:31:54.446Z,13.90
2017-11-09T03:34:22.314Z,15.15
2017-11-09T03:36:50.189Z,14.95
2017-11-09T03:39:18.047Z,14.93
2017-11-09T03:41:45.915Z,13.90
2017-11-09T03:44:13.782Z,12.05
2017-11-09T03:46:41.649Z,11.85
2017-11-09T03:49:09.519Z,13.10
2017-11-09T03:51:37.387Z,11.73
2017-11-09T03:54:05.251Z,12.23
2017-11-09T03:56:33.118Z,14.25
2017-11-09T03:59:00.987Z,12.93
2017-11-09T04:01:28.853Z,12.15
2017-11-09T04:03:56.721Z,13.45
2017-11-09T04:06:24.589Z,11.45
2017-11-09T04:08:52.456Z,11.93
2017-11-09T04:11:20.329Z,11.60
2017-11-09T04:13:48.200Z,12.10
2017-11-09T04:16:16.062Z,12.05
2017-11-09T04:18:43.928Z,12.93
2017-11-09T04:21:11.793Z,12.75
2017-11-09T04:23:39.664Z,13.52
2017-11-09T04:26:07.530Z,13.05
2017-11-09T04:28:35.397Z,12.50
2017-11-09T04:31:03.205Z,13.02
2017-11-09T04:33:31.027Z,13.18
2017-11-09T04:35:58.895Z,12.80
2017-11-09T04:38:26.695Z,15.82
2017-11-09T04:40:55.345Z,14.35
2017-11-09T04:43:23.213Z,16.10
2017-11-09T04:45:51.079Z,15.07
2017-11-09T04:48:18.947Z,13.88
2017-11-09T04:50:46.816Z,15.52
2017-11-09T04:53:14.682Z,16.35
2017-11-09T04:55:42.549Z,13.80
2017-11-09T04:58:10.416Z,14.43
2017-11-09T05:00:38.283Z,13.98
2017-11-09T05:03:06.165Z,12.60
2017-11-09T05:05:34.735Z,13.95
2017-11-09T05:08:02.603Z,14.13
2017-11-09T05:10:30.473Z,13.35
2017-11-09T05:12:58.341Z,14.87
2017-11-09T05:15:26.140Z,14.40
2017-11-09T05:17:54.788Z,14.27
2017-11-09T05:20:22.656Z,13.25
2017-11-09T05:22:50.523Z,12.82
2017-11-09T05:25:18.391Z,12.35
2017-11-09T05:27:46.257Z,13.82
2017-11-09T05:30:14.125Z,11.77
2017-11-09T05:32:41.993Z,13.13
2017-11-09T05:35:09.859Z,13.05
2017-11-09T05:37:37.931Z,13.55
2017-11-09T05:40:05.800Z,14.73
2017-11-09T05:42:33.666Z,13.70
2017-11-09T05:45:01.537Z,12.88
2017-11-09T05:47:29.401Z,14.40
2017-11-09T05:49:57.269Z,13.85
2017-11-09T05:52:25.136Z,15.40
2017-11-09T05:54:53.010Z,16.40
2017-11-09T05:57:20.869Z,16.80
2017-11-09T05:59:48.738Z,16.35
2017-11-09T06:02:16.604Z,17.75
2017-11-09T06:04:44.472Z,17.60
2017-11-09T06:07:12.344Z,18.90
2017-11-09T06:09:40.206Z,16.67
2017-11-09T06:12:08.075Z,16.40
2017-11-09T06:14:35.950Z,17.52
2017-11-09T06:17:03.808Z,17.98
2017-11-09T06:19:31.675Z,18.90
2017-11-09T06:21:59.542Z,19.95
2017-11-09T06:24:27.410Z,19.20
2017-11-09T06:26:55.278Z,19.98
2017-11-09T06:29:23.281Z,22.25
2017-11-09T06:31:52.549Z,22.90
2017-11-09T06:34:20.428Z,19.15
2017-11-09T06:36:48.282Z,16.83
2017-11-09T06:39:16.149Z,17.12
2017-11-09T06:41:44.018Z,19.58
2017-11-09T06:44:11.885Z,18.42
2017-11-09T06:46:39.756Z,19.75
2017-11-09T06:49:07.619Z,18.27
2017-11-09T06:51:35.486Z,18.58
2017-11-09T06:54:03.353Z,18.12
2017-11-09T06:56:31.226Z,17.92
2017-11-09T06:58:59.092Z,18.33
2017-11-09T07:01:26.958Z,17.70
2017-11-09T07:03:54.824Z,23.12
2017-11-09T07:06:22.691Z,25.45
2017-11-09T07:08:50.558Z,26.40
2017-11-09T07:11:18.425Z,32.28
2017-11-09T07:13:46.292Z,31.30
2017-11-09T07:16:14.158Z,33.40
2017-11-09T07:18:42.028Z,38.50
2017-11-09T07:21:09.896Z,37.15
2017-11-09T07:23:37.764Z,35.95
2017-11-09T07:26:05.631Z,34.13
2017-11-09T07:28:33.511Z,33.42
2017-11-09T07:31:01.369Z,32.42
2017-11-09T07:33:29.236Z,33.70
2017-11-09T07:35:57.105Z,33.25
2017-11-09T07:38:24.968Z,35.95
2017-11-09T07:40:52.837Z,34.60
2017-11-09T07:43:20.703Z,33.30
2017-11-09T07:45:48.570Z,33.30
2017-11-09T07:48:16.437Z,36.08
2017-11-09T07:50:44.306Z,34.10
2017-11-09T07:53:12.170Z,33.28
2017-11-09T07:55:40.038Z,31.40
2017-11-09T07:58:07.905Z,31.33
2017-11-09T08:00:35.772Z,32.97
2017-11-09T08:03:03.644Z,32.53
2017-11-09T08:05:31.506Z,30.10
2017-11-09T08:07:59.373Z,32.97
2017-11-09T08:10:27.241Z,32.58
2017-11-09T08:12:55.108Z,30.45
2017-11-09T08:15:22.976Z,30.92
2017-11-09T08:17:50.843Z,28.95
2017-11-09T08:20:18.711Z,30.65
2017-11-09T08:22:46.577Z,30.50
2017-11-09T08:25:15.603Z,32.22
2017-11-09T08:27:46.241Z,32.05
2017-11-09T08:30:18.488Z,30.85
2017-11-09T08:32:47.297Z,32.22
2017-11-09T08:35:15.961Z,32.17
2017-11-09T08:37:43.817Z,32.45
2017-11-09T08:40:11.684Z,31.65
2017-11-09T08:42:39.552Z,31.75
2017-11-09T08:45:07.419Z,35.38
2017-11-09T08:47:35.286Z,31.17
2017-11-09T08:50:03.154Z,32.97
2017-11-09T08:52:31.021Z,34.30
2017-11-09T08:54:58.889Z,32.40
2017-11-09T08:57:26.756Z,35.83
2017-11-09T08:59:54.624Z,34.22
2017-11-09T09:02:22.489Z,34.13
2017-11-09T09:04:50.357Z,34.03
2017-11-09T09:07:18.223Z,34.92
2017-11-09T09:09:46.092Z,32.97
2017-11-09T09:12:13.959Z,37.50
2017-11-09T09:14:41.826Z,36.10
2017-11-09T09:17:09.693Z,34.58
2017-11-09T09:19:37.562Z,36.25
2017-11-09T09:22:16.180Z,35.33
2017-11-09T09:24:44.048Z,38.80
2017-11-09T09:27:28.710Z,35.20
2017-11-09T09:30:12.346Z,35.35
2017-11-09T09:32:45.676Z,34.25
2017-11-09T09:35:31.838Z,30.95
2017-11-09T09:38:01.704Z,32.95
2017-11-09T09:40:31.435Z,35.63
2017-11-09T09:42:59.330Z,34.50
2017-11-09T09:45:27.199Z,32.05
2017-11-09T09:47:55.068Z,36.97
2017-11-09T09:50:22.933Z,34.00
2017-11-09T09:52:50.800Z,32.50
2017-11-09T09:55:18.667Z,32.90
2017-11-09T09:57:46.535Z,36.50
2017-11-09T10:00:14.505Z,34.92
2017-11-09T10:02:42.373Z,33.70
2017-11-09T10:05:10.239Z,34.53
2017-11-09T10:07:38.107Z,33.25
2017-11-09T10:10:05.973Z,31.85
2017-11-09T10:12:33.841Z,34.67
2017-11-09T10:15:01.710Z,34.28
2017-11-09T10:17:29.578Z,34.50
2017-11-09T10:19:57.443Z,35.63
2017-11-09T10:22:25.311Z,36.08
2017-11-09T10:24:53.183Z,34.75
2017-11-09T10:27:21.045Z,33.40
2017-11-09T10:29:48.912Z,30.98
2017-11-09T10:32:16.780Z,30.60
2017-11-09T10:34:44.646Z,25.60
2017-11-09T10:37:12.514Z,27.45
2017-11-09T10:39:40.381Z,25.95
2017-11-09T10:42:08.249Z,24.80
2017-11-09T10:44:36.117Z,20.55
2017-11-09T10:47:03.983Z,17.12
2017-11-09T10:49:31.856Z,18.62
2017-11-09T10:51:59.720Z,15.98
2017-11-09T10:54:27.588Z,15.52
2017-11-09T10:56:55.453Z,14.93
2017-11-09T10:59:23.325Z,15.57
2017-11-09T11:01:51.191Z,15.13
2017-11-09T11:04:19.060Z,14.32
2017-11-09T11:06:46.925Z,13.68
2017-11-09T11:09:14.791Z,14.38
2017-11-09T11:11:42.656Z,14.13
2017-11-09T11:14:10.454Z,14.82
2017-11-09T11:16:39.115Z,13.68
2017-11-09T11:19:06.975Z,14.73
2017-11-09T11:21:34.845Z,13.30
2017-11-09T11:24:02.711Z,15.02
2017-11-09T11:26:30.577Z,15.18
2017-11-09T11:28:58.444Z,13.80
2017-11-09T11:31:26.247Z,15.63
2017-11-09T11:33:54.896Z,14.48
2017-11-09T11:36:22.765Z,13.23
2017-11-09T11:38:50.629Z,14.87
2017-11-09T11:41:18.499Z,14.30
2017-11-09T11:43:46.366Z,14.87
2017-11-09T11:46:14.232Z,12.57
2017-11-09T11:48:42.099Z,13.35
2017-11-09T11:51:09.968Z,13.10
2017-11-09T11:53:37.834Z,12.95
2017-11-09T11:56:05.702Z,14.90
2017-11-09T11:58:33.570Z,14.70
2017-11-09T12:01:01.439Z,15.23
2017-11-09T12:03:29.312Z,14.23
2017-11-09T12:05:57.172Z,14.57
2017-11-09T12:08:25.039Z,17.70
2017-11-09T12:10:52.906Z,16.25
2017-11-09T12:13:20.774Z,15.98
2017-11-09T12:15:48.643Z,16.33
2017-11-09T12:18:16.508Z,20.25
2017-11-09T12:20:44.375Z,21.85
2017-11-09T12:23:12.242Z,22.27
2017-11-09T12:25:40.109Z,23.80
2017-11-09T12:28:07.978Z,24.90
2017-11-09T12:30:35.780Z,24.60
2017-11-09T12:33:04.362Z,26.98
2017-11-09T12:35:33.012Z,25.62
2017-11-09T12:38:00.884Z,24.35
2017-11-09T12:40:28.747Z,25.02
2017-11-09T12:42:56.614Z,26.95
2017-11-09T12:45:24.481Z,24.77
2017-11-09T12:47:52.350Z,28.83
2017-11-09T12:50:20.217Z,25.58
2017-11-09T12:52:48.084Z,24.20
2017-11-09T12:55:15.960Z,23.80
2017-11-09T12:57:43.818Z,24.58
2017-11-09T13:00:11.686Z,22.70
2017-11-09T13:02:39.553Z,23.30
2017-11-09T13:05:07.421Z,25.30
2017-11-09T13:07:35.287Z,25.73
2017-11-09T13:10:03.153Z,28.08
2017-11-09T13:12:31.022Z,27.23
2017-11-09T13:14:58.890Z,28.25
2017-11-09T13:17:26.760Z,30.15
2017-11-09T13:19:54.623Z,26.37
2017-11-09T13:22:22.491Z,28.83
2017-11-09T13:24:50.356Z,29.65
2017-11-09T13:27:18.226Z,27.92
2017-11-09T13:29:46.093Z,27.67
2017-11-09T13:32:14.063Z,29.75
2017-11-09T13:34:41.931Z,28.05
2017-11-09T13:37:09.798Z,28.87
2017-11-09T13:39:37.669Z,28.27
2017-11-09T13:42:05.532Z,28.73
2017-11-09T13:44:33.400Z,27.17
2017-11-09T13:47:01.278Z,26.02
2017-11-09T13:49:29.134Z,28.17
2017-11-09T13:51:56.995Z,29.05
2017-11-09T13:54:24.868Z,30.48
2017-11-09T13:56:52.837Z,29.90
2017-11-09T13:59:20.706Z,28.38
2017-11-09T14:01:48.573Z,30.20
2017-11-09T14:04:16.445Z,29.12
2017-11-09T14:06:44.308Z,28.40
2017-11-09T14:09:12.180Z,28.92
2017-11-09T14:11:40.042Z,31.12
2017-11-09T14:14:07.911Z,28.67
2017-11-09T14:16:35.782Z,28.38
2017-11-09T14:19:03.650Z,27.90
2017-11-09T14:21:31.515Z,29.02
2017-11-09T14:23:59.390Z,31.48
2017-11-09T14:26:27.246Z,28.65
2017-11-09T14:28:55.114Z,27.98
2017-11-09T14:31:22.985Z,25.83
2017-11-09T14:33:50.848Z,27.10
2017-11-09T14:36:18.716Z,26.77
2017-11-09T14:38:51.400Z,25.88
2017-11-09T14:41:19.266Z,27.48
2017-11-09T14:43:47.130Z,29.50
2017-11-09T14:46:14.998Z,28.27
2017-11-09T14:48:42.874Z,27.45
2017-11-09T14:51:10.732Z,27.40
2017-11-09T14:53:38.599Z,26.70
2017-11-09T14:56:06.467Z,26.08
2017-11-09T14:58:34.334Z,26.92
2017-11-09T15:01:02.202Z,28.92
2017-11-09T15:03:30.069Z,27.42
2017-11-09T15:05:57.936Z,28.60
2017-11-09T15:08:25.802Z,29.33
2017-11-09T15:10:53.670Z,28.87
2017-11-09T15:13:21.539Z,30.45
2017-11-09T15:15:55.242Z,30.35
2017-11-09T15:18:23.110Z,31.20
2017-11-09T15:20:50.996Z,29.42
2017-11-09T15:23:18.946Z,29.80
2017-11-09T15:25:46.814Z,27.35
2017-11-09T15:28:14.681Z,30.55
2017-11-09T15:30:42.548Z,31.70
2017-11-09T15:33:10.418Z,28.77
2017-11-09T15:35:38.283Z,32.40
2017-11-09T15:38:06.150Z,31.87
2017-11-09T15:40:34.018Z,31.85
2017-11-09T15:43:01.884Z,29.45
2017-11-09T15:45:29.753Z,30.62
2017-11-09T15:47:57.628Z,31.55
2017-11-09T15:50:25.487Z,30.65
2017-11-09T15:52:53.355Z,29.52
2017-11-09T15:55:21.223Z,30.12
2017-11-09T15:57:49.018Z,30.33
2017-11-09T16:00:17.673Z,30.80
2017-11-09T16:02:45.541Z,31.30
2017-11-09T16:05:13.409Z,30.48
2017-11-09T16:07:41.275Z,31.08
2017-11-09T16:10:09.143Z,32.58
2017-11-09T16:12:37.008Z,29.95
2017-11-09T16:15:04.877Z,28.27
2017-11-09T16:17:32.744Z,29.85
2017-11-09T16:20:00.611Z,30.08
2017-11-09T16:22:28.478Z,30.42
2017-11-09T16:24:56.346Z,29.50
2017-11-09T16:27:24.215Z,29.05
2017-11-09T16:29:52.081Z,30.20
2017-11-09T16:32:19.956Z,28.98
2017-11-09T16:34:47.816Z,29.20
2017-11-09T16:37:15.683Z,29.12
2017-11-09T16:39:43.551Z,31.42
2017-11-09T16:42:11.417Z,30.05
2017-11-09T16:44:39.285Z,28.15
2017-11-09T16:47:07.151Z,28.77
2017-11-09T16:49:35.021Z,29.55
2017-11-09T16:52:02.887Z,31.08
2017-11-09T16:54:30.754Z,30.83
2017-11-09T16:56:58.621Z,29.00
2017-11-09T16:59:26.490Z,28.52
2017-11-09T17:01:54.360Z,30.85
2017-11-09T17:04:22.224Z,30.35
2017-11-09T17:06:50.092Z,28.73
2017-11-09T17:09:17.958Z,30.40
2017-11-09T17:11:45.830Z,30.00
2017-11-09T17:14:13.693Z,29.95
2017-11-09T17:16:41.561Z,29.85
2017-11-09T17:19:10.253Z,28.80
2017-11-09T17:21:38.116Z,31.27
2017-11-09T17:24:05.981Z,29.63
2017-11-09T17:26:33.854Z,27.27
2017-11-09T17:29:01.721Z,29.33
2017-11-09T17:31:29.586Z,27.65
2017-11-09T17:33:57.451Z,27.40
2017-11-09T17:36:25.320Z,28.92
2017-11-09T17:38:53.185Z,30.02
2017-11-09T17:41:21.053Z,29.92
2017-11-09T17:43:48.920Z,29.20
2017-11-09T17:46:16.789Z,27.25
2017-11-09T17:48:44.655Z,27.10
2017-11-09T17:51:14.467Z,29.17
2017-11-09T17:53:42.336Z,28.05
2017-11-09T17:56:10.203Z,29.98
2017-11-09T17:58:38.070Z,27.00
2017-11-09T18:01:05.937Z,29.08
2017-11-09T18:03:35.647Z,27.83
2017-11-09T18:06:03.516Z,27.23
2017-11-09T18:08:31.390Z,24.67
2017-11-09T18:10:59.249Z,26.73
2017-11-09T18:13:27.117Z,24.02
2017-11-09T18:15:55.086Z,25.30
2017-11-09T18:18:22.958Z,23.65
2017-11-09T18:20:50.821Z,22.60
2017-11-09T18:23:29.236Z,23.80
2017-11-09T18:25:57.103Z,22.10
2017-11-09T18:28:24.904Z,26.27
2017-11-09T18:30:53.554Z,27.10
2017-11-09T18:33:21.425Z,28.17
2017-11-09T18:35:49.288Z,25.55
2017-11-09T18:38:17.156Z,21.92
2017-11-09T18:40:45.026Z,23.62
2017-11-09T18:43:12.910Z,22.80
2017-11-09T18:45:40.759Z,23.67
2017-11-09T18:48:08.626Z,25.30
2017-11-09T18:50:36.493Z,22.35
2017-11-09T18:53:04.360Z,22.62
2017-11-09T18:55:32.227Z,21.92
2017-11-09T18:58:00.095Z,22.42
2017-11-09T19:00:28.787Z,20.80
2017-11-09T19:02:56.649Z,21.65
2017-11-09T19:05:24.517Z,20.02
2017-11-09T19:07:52.383Z,20.88
2017-11-09T19:10:20.250Z,19.58
2017-11-09T19:12:48.118Z,20.37
2017-11-09T19:15:15.985Z,20.12
2017-11-09T19:17:43.859Z,19.60
2017-11-09T19:20:11.719Z,18.70
2017-11-09T19:22:39.588Z,19.58
2017-11-09T19:25:07.454Z,18.42
2017-11-09T19:27:35.321Z,17.23
2017-11-09T19:30:03.189Z,18.92
2017-11-09T19:32:31.056Z,18.15
2017-11-09T19:34:58.922Z,18.85
2017-11-09T19:37:26.791Z,17.65
2017-11-09T19:39:54.680Z,17.80
2017-11-09T19:42:23.345Z,16.33
2017-11-09T19:44:51.212Z,15.88
2017-11-09T19:47:18.930Z,16.95
2017-11-09T19:49:46.634Z,16.83
2017-11-09T19:52:14.514Z,17.17
2017-11-09T19:54:42.256Z,16.90
2017-11-09T19:57:10.142Z,17.02
2017-11-09T19:59:37.855Z,16.08
2017-11-09T20:02:05.668Z,17.90
2017-11-09T20:04:33.536Z,16.65
2017-11-09T20:07:01.404Z,16.60
2017-11-09T20:09:29.271Z,16.73
2017-11-09T20:11:57.138Z,16.58
2017-11-09T20:14:25.006Z,14.93
2017-11-09T20:16:52.771Z,17.42
2017-11-09T20:19:20.637Z,15.65
2017-11-09T20:21:48.499Z,17.25
2017-11-09T20:24:16.372Z,19.15
2017-11-09T20:26:44.242Z,16.95
2017-11-09T20:29:12.113Z,17.75
2017-11-09T20:31:39.974Z,16.52
2017-11-09T20:34:07.840Z,18.23
2017-11-09T20:36:35.709Z,16.90
2017-11-09T20:39:03.501Z,18.35
2017-11-09T20:41:31.340Z,19.10
2017-11-09T20:43:59.208Z,18.30
2017-11-09T20:46:27.080Z,16.87
2017-11-09T20:48:54.805Z,18.25
2017-11-09T20:51:22.547Z,18.50
2017-11-09T20:53:51.191Z,18.35
2017-11-09T20:56:19.060Z,18.60
2017-11-09T20:58:46.927Z,16.92
2017-11-09T21:01:14.809Z,15.43
2017-11-09T21:03:42.663Z,16.23
2017-11-09T21:06:10.527Z,15.85
2017-11-09T21:08:38.391Z,14.23
2017-11-09T21:11:06.260Z,15.65
2017-11-09T21:13:34.332Z,17.02
2017-11-09T21:16:02.199Z,15.75
2017-11-09T21:18:30.066Z,15.13
2017-11-09T21:20:57.933Z,15.55
2017-11-09T21:23:25.809Z,16.95
2017-11-09T21:25:53.668Z,16.70
2017-11-09T21:28:21.536Z,14.98
2017-11-09T21:30:49.409Z,15.43
2017-11-09T21:33:17.271Z,16.60
2017-11-09T21:35:45.140Z,18.42
2017-11-09T21:38:13.025Z,16.85
2017-11-09T21:40:41.692Z,17.60
2017-11-09T21:43:09.663Z,17.50
2017-11-09T21:45:37.528Z,18.25
2017-11-09T21:48:05.397Z,17.50
2017-11-09T21:50:33.262Z,16.40
2017-11-09T21:53:01.131Z,16.85
2017-11-09T21:55:28.997Z,16.55
2017-11-09T21:57:56.865Z,16.83
2017-11-09T22:00:24.733Z,16.23
2017-11-09T22:02:52.599Z,16.30
2017-11-09T22:05:20.467Z,17.50
2017-11-09T22:07:48.335Z,18.52
2017-11-09T22:10:16.306Z,16.23
2017-11-09T22:12:44.174Z,18.25
2017-11-09T22:15:12.039Z,16.55
2017-11-09T22:17:39.907Z,17.98
2017-11-09T22:20:07.773Z,17.33
2017-11-09T22:22:35.641Z,19.27
2017-11-09T22:25:03.503Z,18.05
2017-11-09T22:27:31.376Z,19.17
2017-11-09T22:29:59.247Z,17.12
2017-11-09T22:32:27.113Z,19.17
2017-11-09T22:34:54.980Z,18.42
2017-11-09T22:37:22.846Z,19.40
2017-11-09T22:39:50.713Z,18.55
2017-11-09T22:42:18.579Z,18.67
2017-11-09T22:44:46.447Z,20.05
2017-11-09T22:47:14.316Z,19.80
2017-11-09T22:49:42.182Z,20.42
2017-11-09T22:52:10.055Z,18.55
2017-11-09T22:54:37.919Z,18.00
2017-11-09T22:57:05.787Z,18.70
2017-11-09T22:59:33.551Z,19.80
2017-11-09T23:02:01.438Z,19.58
2017-11-09T23:04:29.285Z,19.40
2017-11-09T23:06:57.155Z,19.87
2017-11-09T23:09:25.019Z,21.42
2017-11-09T23:11:52.887Z,20.00
2017-11-09T23:14:20.753Z,19.33
2017-11-09T23:16:48.619Z,20.95
2017-11-09T23:19:16.479Z,21.10
2017-11-09T23:21:45.174Z,21.05
2017-11-09T23:24:13.042Z,21.15
2017-11-09T23:26:40.908Z,21.45
2017-11-09T23:29:08.776Z,20.55
2017-11-09T23:31:36.644Z,20.25
2017-11-09T23:34:04.510Z,22.00
2017-11-09T23:36:32.377Z,21.40
2017-11-09T23:39:00.245Z,22.30
2017-11-09T23:41:28.117Z,21.45
2017-11-09T23:43:55.980Z,21.90
2017-11-09T23:46:23.841Z,22.67
2017-11-09T23:48:51.715Z,21.90
2017-11-09T23:51:19.581Z,21.98
2017-11-09T23:53:47.450Z,21.42
2017-11-09T23:56:15.316Z,22.10
2017-11-09T23:58:43.184Z,21.15
